createdAt,value
2018-05-15T00:00:45.903Z,94.76
2018-05-15T00:01:45.842Z,94.73
2018-05-15T00:02:45.815Z,94.43
2018-05-15T00:03:45.852Z,94.24
2018-05-15T00:04:45.831Z,94.41
2018-05-15T00:05:46.218Z,94.55
2018-05-15T00:06:45.827Z,94.33
2018-05-15T00:07:45.841Z,94.24
2018-05-15T00:08:45.832Z,94.38
2018-05-15T00:09:45.844Z,94.39
2018-05-15T00:10:45.855Z,94.21
2018-05-15T00:11:45.847Z,94
2018-05-15T00:12:45.845Z,94.78
2018-05-15T00:13:45.874Z,95.08
2018-05-15T00:14:45.832Z,94.92
2018-05-15T00:15:45.831Z,94.65
2018-05-15T00:16:45.837Z,94.32
2018-05-15T00:17:45.856Z,94.23
2018-05-15T00:18:45.862Z,94.11
2018-05-15T00:19:45.840Z,94.1
2018-05-15T00:20:45.832Z,94.32
2018-05-15T00:21:46.043Z,94.08
2018-05-15T00:22:45.876Z,93.99
2018-05-15T00:23:45.883Z,94.39
2018-05-15T00:24:45.897Z,94.2
2018-05-15T00:25:45.837Z,94.35
2018-05-15T00:26:45.865Z,94.82
2018-05-15T00:27:45.881Z,94.92
2018-05-15T00:28:45.871Z,94.92
2018-05-15T00:29:45.833Z,94.48
2018-05-15T00:30:45.841Z,94.35
2018-05-15T00:31:45.849Z,94.72
2018-05-15T00:32:45.896Z,94.59
2018-05-15T00:33:45.881Z,94.73
2018-05-15T00:34:45.915Z,94.93
2018-05-15T00:35:45.902Z,95.12
2018-05-15T00:36:45.847Z,94.93
2018-05-15T00:37:45.830Z,94.74
2018-05-15T00:38:45.993Z,94.46
2018-05-15T00:39:45.879Z,94.62
2018-05-15T00:40:45.870Z,94.89
2018-05-15T00:41:45.895Z,94.9
2018-05-15T00:42:45.882Z,95.15
2018-05-15T00:43:45.869Z,95.2
2018-05-15T00:44:45.945Z,95.26
2018-05-15T00:45:45.899Z,95.39
2018-05-15T00:46:46.270Z,95.34
2018-05-15T00:47:45.889Z,95.01
2018-05-15T00:48:45.857Z,94.87
2018-05-15T00:49:45.883Z,94.96
2018-05-15T00:50:45.861Z,94.48
2018-05-15T00:51:45.841Z,95.23
2018-05-15T00:52:45.879Z,94.68
2018-05-15T00:53:45.876Z,95.27
2018-05-15T00:54:45.887Z,94.74
2018-05-15T00:55:45.886Z,95.05
2018-05-15T00:56:46.082Z,94.75
2018-05-15T00:57:45.926Z,94.66
2018-05-15T00:58:45.887Z,94.97
2018-05-15T00:59:45.905Z,95.2
2018-05-15T01:00:45.866Z,94.89
2018-05-15T01:01:46.030Z,95
2018-05-15T01:02:45.883Z,94.77
2018-05-15T01:03:45.962Z,94.83
2018-05-15T01:04:45.873Z,94.73
2018-05-15T01:05:45.883Z,94.8
2018-05-15T01:06:45.930Z,94.84
2018-05-15T01:07:45.878Z,95.39
2018-05-15T01:08:45.859Z,95.41
2018-05-15T01:09:46.622Z,95.29
2018-05-15T01:10:45.866Z,95.18
2018-05-15T01:11:45.867Z,95.05
2018-05-15T01:12:45.865Z,94.99
2018-05-15T01:13:45.914Z,95.15
2018-05-15T01:14:45.868Z,95.17
2018-05-15T01:15:45.887Z,95.14
2018-05-15T01:16:45.848Z,94.82
2018-05-15T01:17:45.998Z,95.01
2018-05-15T01:18:45.838Z,95.03
2018-05-15T01:19:45.855Z,94.65
2018-05-15T01:20:45.881Z,95.04
2018-05-15T01:21:45.848Z,95.01
2018-05-15T01:22:45.871Z,94.97
2018-05-15T01:23:45.843Z,94.91
2018-05-15T01:24:45.854Z,94.7
2018-05-15T01:25:45.923Z,94.61
2018-05-15T01:26:45.865Z,94.48
2018-05-15T01:27:45.896Z,94.63
2018-05-15T01:28:45.977Z,94.82
2018-05-15T01:29:45.867Z,94.45
2018-05-15T01:30:46.007Z,94.58
2018-05-15T01:31:45.848Z,94.6
2018-05-15T01:32:45.865Z,94.65
2018-05-15T01:33:45.918Z,94.86
2018-05-15T01:34:46.039Z,94.87
2018-05-15T01:35:45.897Z,94.88
2018-05-15T01:36:45.866Z,94.84
2018-05-15T01:37:45.887Z,94.7
2018-05-15T01:38:45.886Z,94.64
2018-05-15T01:39:45.877Z,94.77
2018-05-15T01:40:45.880Z,94.46
2018-05-15T01:41:45.970Z,94.65
2018-05-15T01:42:45.875Z,94.75
2018-05-15T01:43:45.858Z,94.52
2018-05-15T01:44:45.912Z,94.37
2018-05-15T01:45:45.891Z,94.28
2018-05-15T01:46:45.949Z,94.08
2018-05-15T01:47:45.881Z,94.17
2018-05-15T01:48:45.915Z,94.27
2018-05-15T01:49:45.852Z,94.55
2018-05-15T01:50:45.885Z,94.58
2018-05-15T01:51:45.870Z,94.61
2018-05-15T01:52:46.020Z,94.62
2018-05-15T01:53:45.946Z,94.7
2018-05-15T01:54:45.888Z,94.76
2018-05-15T01:55:45.883Z,94.43
2018-05-15T01:56:45.875Z,94.25
2018-05-15T01:57:45.889Z,94.73
2018-05-15T01:58:45.890Z,94.65
2018-05-15T01:59:45.920Z,94.5
2018-05-15T02:00:45.884Z,94.68
2018-05-15T02:01:45.912Z,94.51
2018-05-15T02:02:46.039Z,94.75
2018-05-15T02:03:46.027Z,94.4
2018-05-15T02:04:45.922Z,94.32
2018-05-15T02:05:45.888Z,94.21
2018-05-15T02:06:45.881Z,94.55
2018-05-15T02:07:45.915Z,94.41
2018-05-15T02:08:45.958Z,94.41
2018-05-15T02:09:45.916Z,94.62
2018-05-15T02:10:45.898Z,94.38
2018-05-15T02:11:45.942Z,94.49
2018-05-15T02:12:45.916Z,94.65
2018-05-15T02:13:45.928Z,94.87
2018-05-15T02:14:45.906Z,94.13
2018-05-15T02:15:45.923Z,94.87
2018-05-15T02:16:45.912Z,95.3
2018-05-15T02:17:45.898Z,95.12
2018-05-15T02:18:45.920Z,94.96
2018-05-15T02:19:45.915Z,94.72
2018-05-15T02:20:46.072Z,94.67
2018-05-15T02:21:45.882Z,94.61
2018-05-15T02:22:45.884Z,94.48
2018-05-15T02:23:45.889Z,94.45
2018-05-15T02:24:45.912Z,94.14
2018-05-15T02:25:45.918Z,94.65
2018-05-15T02:26:45.921Z,94.5
2018-05-15T02:27:45.896Z,94.22
2018-05-15T02:28:45.887Z,94.19
2018-05-15T02:29:45.953Z,94.18
2018-05-15T02:30:45.931Z,94.19
2018-05-15T02:31:45.920Z,94.22
2018-05-15T02:32:45.916Z,93.88
2018-05-15T02:33:45.937Z,94.47
2018-05-15T02:34:45.930Z,95.01
2018-05-15T02:35:45.950Z,94.87
2018-05-15T02:36:45.927Z,94.5
2018-05-15T02:37:45.886Z,95.11
2018-05-15T02:38:45.911Z,94.98
2018-05-15T02:39:45.913Z,94.66
2018-05-15T02:40:45.962Z,94.66
2018-05-15T02:41:46.031Z,94.74
2018-05-15T02:42:45.917Z,94.51
2018-05-15T02:43:45.958Z,94.69
2018-05-15T02:44:45.964Z,95.18
2018-05-15T02:45:45.907Z,95.05
2018-05-15T02:46:45.980Z,94.8
2018-05-15T02:47:45.925Z,94.79
2018-05-15T02:48:45.936Z,95.13
2018-05-15T02:49:45.944Z,94.66
2018-05-15T02:50:45.956Z,94.73
2018-05-15T02:51:45.892Z,94.32
2018-05-15T02:52:45.917Z,94.13
2018-05-15T02:53:46.006Z,94.53
2018-05-15T02:54:46.048Z,94.35
2018-05-15T02:55:45.940Z,94.33
2018-05-15T02:56:45.921Z,94.28
2018-05-15T02:57:45.920Z,94.36
2018-05-15T02:58:46.108Z,94.46
2018-05-15T02:59:45.930Z,94.25
2018-05-15T03:00:45.942Z,94.08
2018-05-15T03:01:45.945Z,94.52
2018-05-15T03:02:45.930Z,94.36
2018-05-15T03:03:45.945Z,94.16
2018-05-15T03:04:45.952Z,93.99
2018-05-15T03:05:45.917Z,94.11
2018-05-15T03:06:45.940Z,94.01
2018-05-15T03:07:45.939Z,93.65
2018-05-15T03:08:45.926Z,93.98
2018-05-15T03:09:46.038Z,93.94
2018-05-15T03:10:45.910Z,94.07
2018-05-15T03:11:45.973Z,93.65
2018-05-15T03:12:45.927Z,93.77
2018-05-15T03:13:46.049Z,94.2
2018-05-15T03:14:45.943Z,94.16
2018-05-15T03:15:45.987Z,93.98
2018-05-15T03:16:45.932Z,93.9
2018-05-15T03:17:45.907Z,94.08
2018-05-15T03:18:45.952Z,93.93
2018-05-15T03:19:45.923Z,93.98
2018-05-15T03:20:46.013Z,93.63
2018-05-15T03:21:45.952Z,93.65
2018-05-15T03:22:45.936Z,93.73
2018-05-15T03:23:45.968Z,93.59
2018-05-15T03:24:45.928Z,93.53
2018-05-15T03:25:45.962Z,93.42
2018-05-15T03:26:45.902Z,93.34
2018-05-15T03:27:45.926Z,93.04
2018-05-15T03:28:45.955Z,93.07
2018-05-15T03:29:45.933Z,93.14
2018-05-15T03:30:45.954Z,93.62
2018-05-15T03:31:45.929Z,93.83
2018-05-15T03:32:45.933Z,93.99
2018-05-15T03:33:45.923Z,93.54
2018-05-15T03:34:45.935Z,93.5
2018-05-15T03:35:45.919Z,93.45
2018-05-15T03:36:45.942Z,93.46
2018-05-15T03:37:45.935Z,93.44
2018-05-15T03:38:45.952Z,93.88
2018-05-15T03:39:45.922Z,94.14
2018-05-15T03:40:45.939Z,94.25
2018-05-15T03:41:46.086Z,94.29
2018-05-15T03:42:45.928Z,93.89
2018-05-15T03:43:45.954Z,93.78
2018-05-15T03:44:45.965Z,94.23
2018-05-15T03:45:46.076Z,94.17
2018-05-15T03:46:46.025Z,93.98
2018-05-15T03:47:46.083Z,93.75
2018-05-15T03:48:45.969Z,93.9
2018-05-15T03:49:45.988Z,93.91
2018-05-15T03:50:45.952Z,93.7
2018-05-15T03:51:45.968Z,93.73
2018-05-15T03:52:45.983Z,93.8
2018-05-15T03:53:45.977Z,93.97
2018-05-15T03:54:45.962Z,94.04
2018-05-15T03:55:46.004Z,93.94
2018-05-15T03:56:45.962Z,94.16
2018-05-15T03:57:45.921Z,93.97
2018-05-15T03:58:45.964Z,94.28
2018-05-15T03:59:45.979Z,94.54
2018-05-15T04:00:45.975Z,94.53
2018-05-15T04:01:45.987Z,94.74
2018-05-15T04:02:46.105Z,94.78
2018-05-15T04:03:45.965Z,95.01
2018-05-15T04:04:45.939Z,95.24
2018-05-15T04:05:45.955Z,95.08
2018-05-15T04:06:46.029Z,94.92
2018-05-15T04:07:45.981Z,94.71
2018-05-15T04:08:46.138Z,94.7
2018-05-15T04:09:45.941Z,94.62
2018-05-15T04:10:46.055Z,94.61
2018-05-15T04:11:45.995Z,95.16
2018-05-15T04:12:45.996Z,94.94
2018-05-15T04:13:45.973Z,95
2018-05-15T04:14:46.022Z,94.65
2018-05-15T04:15:46.057Z,94.45
2018-05-15T04:16:46.047Z,94.51
2018-05-15T04:17:46.002Z,94.96
2018-05-15T04:18:45.950Z,94.66
2018-05-15T04:19:46.033Z,94.62
2018-05-15T04:20:45.957Z,94.54
2018-05-15T04:21:46.118Z,94.47
2018-05-15T04:22:45.955Z,94.38
2018-05-15T04:23:46.171Z,94.5
2018-05-15T04:24:45.942Z,94.23
2018-05-15T04:25:45.949Z,94.44
2018-05-15T04:26:45.968Z,94.48
2018-05-15T04:27:45.975Z,94.31
2018-05-15T04:28:45.947Z,94.82
2018-05-15T04:29:45.968Z,95.43
2018-05-15T04:30:45.994Z,95.58
2018-05-15T04:31:45.960Z,95.48
2018-05-15T04:32:46.068Z,95.14
2018-05-15T04:33:45.945Z,95.13
2018-05-15T04:34:45.972Z,95.05
2018-05-15T04:35:45.976Z,94.62
2018-05-15T04:36:45.950Z,94.77
2018-05-15T04:37:45.981Z,94.88
2018-05-15T04:38:46.354Z,94.65
2018-05-15T04:39:45.951Z,94.24
2018-05-15T04:40:45.999Z,94.23
2018-05-15T04:41:45.962Z,94.24
2018-05-15T04:42:46.018Z,94.36
2018-05-15T04:43:46.078Z,94.77
2018-05-15T04:44:45.984Z,94.72
2018-05-15T04:45:45.971Z,94.47
2018-05-15T04:46:45.957Z,94.23
2018-05-15T04:47:45.979Z,94.28
2018-05-15T04:48:45.984Z,94.29
2018-05-15T04:49:45.986Z,94.41
2018-05-15T04:50:45.968Z,94.56
2018-05-15T04:51:45.978Z,94.37
2018-05-15T04:52:45.987Z,94.23
2018-05-15T04:53:46.455Z,93.99
2018-05-15T04:54:45.977Z,93.92
2018-05-15T04:55:46.035Z,93.81
2018-05-15T04:56:45.970Z,93.7
2018-05-15T04:57:46.034Z,93.6
2018-05-15T04:58:45.979Z,93.93
2018-05-15T04:59:45.975Z,94.14
2018-05-15T05:00:45.948Z,93.79
2018-05-15T05:01:45.950Z,93.97
2018-05-15T05:02:48.160Z,93.91
2018-05-15T05:03:45.965Z,93.67
2018-05-15T05:04:46.003Z,93.62
2018-05-15T05:05:45.973Z,93.55
2018-05-15T05:06:45.973Z,93.94
2018-05-15T05:07:46.065Z,94.21
2018-05-15T05:08:45.972Z,94
2018-05-15T05:09:46.014Z,93.82
2018-05-15T05:10:46.087Z,94.24
2018-05-15T05:11:46.207Z,93.96
2018-05-15T05:12:45.995Z,93.82
2018-05-15T05:13:45.983Z,93.71
2018-05-15T05:14:46.125Z,93.6
2018-05-15T05:15:45.959Z,93.53
2018-05-15T05:16:46.013Z,93.4
2018-05-15T05:17:46.040Z,93.47
2018-05-15T05:18:45.964Z,93.52
2018-05-15T05:19:46.035Z,93.64
2018-05-15T05:20:45.974Z,93.89
2018-05-15T05:21:45.976Z,93.69
2018-05-15T05:22:46.185Z,93.39
2018-05-15T05:23:46.183Z,93.52
2018-05-15T05:24:45.998Z,93.66
2018-05-15T05:25:46.005Z,93.65
2018-05-15T05:26:46.015Z,92.6
2018-05-15T05:27:46.009Z,92.8
2018-05-15T05:28:46.008Z,93.64
2018-05-15T05:29:46.050Z,93.71
2018-05-15T05:30:45.983Z,93.78
2018-05-15T05:31:46.110Z,93.91
2018-05-15T05:32:46.015Z,93.86
2018-05-15T05:33:46.015Z,93.59
2018-05-15T05:34:46.030Z,93.83
2018-05-15T05:35:45.982Z,93.51
2018-05-15T05:36:46.024Z,93.26
2018-05-15T05:37:45.984Z,93.14
2018-05-15T05:38:45.989Z,93.01
2018-05-15T05:39:45.979Z,93.04
2018-05-15T05:40:46.022Z,92.99
2018-05-15T05:41:45.992Z,92.76
2018-05-15T05:42:45.977Z,92.81
2018-05-15T05:43:46.006Z,92.97
2018-05-15T05:44:45.993Z,92.91
2018-05-15T05:45:46.004Z,93.11
2018-05-15T05:46:45.996Z,93.1
2018-05-15T05:47:46.022Z,92.72
2018-05-15T05:48:46.007Z,93.41
2018-05-15T05:49:45.985Z,93.6
2018-05-15T05:50:45.995Z,92.98
2018-05-15T05:51:45.994Z,92.87
2018-05-15T05:52:45.999Z,92.82
2018-05-15T05:53:46.017Z,92.66
2018-05-15T05:54:46.072Z,91.83
2018-05-15T05:55:46.005Z,92.63
2018-05-15T05:56:46.040Z,92.43
2018-05-15T05:57:45.991Z,92.49
2018-05-15T05:58:46.032Z,92.53
2018-05-15T05:59:46.105Z,92.44
2018-05-15T06:00:46.008Z,92.74
2018-05-15T06:01:46.058Z,92.5
2018-05-15T06:02:46.005Z,92.55
2018-05-15T06:03:46.036Z,92.72
2018-05-15T06:04:46.096Z,93.08
2018-05-15T06:05:46.044Z,93.02
2018-05-15T06:06:46.041Z,92.43
2018-05-15T06:07:46.005Z,92.53
2018-05-15T06:08:46.001Z,92.36
2018-05-15T06:09:46.025Z,92.75
2018-05-15T06:10:46.103Z,93.09
2018-05-15T06:11:46.029Z,92.89
2018-05-15T06:12:45.994Z,92.75
2018-05-15T06:13:46.000Z,92.86
2018-05-15T06:14:46.047Z,90.43
2018-05-15T06:15:46.000Z,90.39
2018-05-15T06:16:46.078Z,89.87
2018-05-15T06:17:46.017Z,90.09
2018-05-15T06:18:46.035Z,91.46
2018-05-15T06:19:46.060Z,91.76
2018-05-15T06:20:46.178Z,91.63
2018-05-15T06:21:46.047Z,91.73
2018-05-15T06:22:45.995Z,91.81
2018-05-15T06:23:46.009Z,90.88
2018-05-15T06:24:46.062Z,90.3
2018-05-15T06:25:46.015Z,90.21
2018-05-15T06:26:46.028Z,89.62
2018-05-15T06:27:46.180Z,88.79
2018-05-15T06:28:46.025Z,88.49
2018-05-15T06:29:46.013Z,88.61
2018-05-15T06:30:46.042Z,89.33
2018-05-15T06:31:46.040Z,89.48
2018-05-15T06:32:46.077Z,89.95
2018-05-15T06:33:46.056Z,89.97
2018-05-15T06:34:46.082Z,87.9
2018-05-15T06:35:46.082Z,89.15
2018-05-15T06:36:46.108Z,88.46
2018-05-15T06:37:46.096Z,88.7
2018-05-15T06:38:46.073Z,88.09
2018-05-15T06:39:46.099Z,87.8
2018-05-15T06:40:46.080Z,86.94
2018-05-15T06:41:46.079Z,86.18
2018-05-15T06:42:46.100Z,87.53
2018-05-15T06:43:46.086Z,85.19
2018-05-15T06:44:46.155Z,85.78
2018-05-15T06:45:46.096Z,86.57
2018-05-15T06:46:46.104Z,85.84
2018-05-15T06:47:48.990Z,86.01
2018-05-15T06:48:46.214Z,86.66
2018-05-15T06:49:46.124Z,86.91
2018-05-15T06:50:46.132Z,86.99
2018-05-15T06:51:46.157Z,87.44
2018-05-15T06:52:46.149Z,87.55
2018-05-15T06:53:46.204Z,87.57
2018-05-15T06:54:46.166Z,85.77
2018-05-15T06:55:46.175Z,86.77
2018-05-15T06:56:46.180Z,87.93
2018-05-15T06:57:46.184Z,87.46
2018-05-15T06:58:46.160Z,87.57
2018-05-15T06:59:46.211Z,88.37
2018-05-15T07:00:46.321Z,88.56
2018-05-15T07:01:46.268Z,88.5
2018-05-15T07:02:46.259Z,88.04
2018-05-15T07:03:46.163Z,87.4
2018-05-15T07:04:46.303Z,87.31
2018-05-15T07:05:46.208Z,86.54
2018-05-15T07:06:46.185Z,86.73
2018-05-15T07:07:46.212Z,86.9
2018-05-15T07:08:46.207Z,86.33
2018-05-15T07:09:46.232Z,85.65
2018-05-15T07:10:46.191Z,85.99
2018-05-15T07:11:46.232Z,85.17
2018-05-15T07:12:46.222Z,85.18
2018-05-15T07:13:46.157Z,85.24
2018-05-15T07:14:46.223Z,86.49
2018-05-15T07:15:46.525Z,86.31
2018-05-15T07:16:46.261Z,85.24
2018-05-15T07:17:46.494Z,85.93
2018-05-15T07:18:46.176Z,86.62
2018-05-15T07:19:46.655Z,86.61
2018-05-15T07:20:46.201Z,86.58
2018-05-15T07:21:46.225Z,86.66
2018-05-15T07:22:46.203Z,86.25
2018-05-15T07:23:46.222Z,87.12
2018-05-15T07:24:46.042Z,86.53
2018-05-15T07:25:46.225Z,86.1
2018-05-15T07:26:46.297Z,85.16
2018-05-15T07:27:46.079Z,86.15
2018-05-15T07:28:46.042Z,85.61
2018-05-15T07:29:46.035Z,85.64
2018-05-15T07:30:46.042Z,85.9
2018-05-15T07:31:46.055Z,85.57
2018-05-15T07:32:46.035Z,85.47
2018-05-15T07:33:46.045Z,86.21
2018-05-15T07:34:46.072Z,85.83
2018-05-15T07:35:46.058Z,83.93
2018-05-15T07:36:46.068Z,83.5
2018-05-15T07:37:46.084Z,83.65
2018-05-15T07:38:46.057Z,84.22
2018-05-15T07:39:46.131Z,82.76
2018-05-15T07:40:46.044Z,82.55
2018-05-15T07:41:46.084Z,83.05
2018-05-15T07:42:46.041Z,83.89
2018-05-15T07:43:46.041Z,84.07
2018-05-15T07:44:46.056Z,84.04
2018-05-15T07:45:46.101Z,84.42
2018-05-15T07:46:46.137Z,83.59
2018-05-15T07:47:46.028Z,83.89
2018-05-15T07:48:46.098Z,82.83
2018-05-15T07:49:46.039Z,83.58
2018-05-15T07:50:46.049Z,83.64
2018-05-15T07:51:46.048Z,83.8
2018-05-15T07:52:46.051Z,82.73
2018-05-15T07:53:46.096Z,83
2018-05-15T07:54:46.046Z,83.08
2018-05-15T07:55:46.045Z,82.73
2018-05-15T07:56:46.070Z,83.02
2018-05-15T07:57:46.052Z,83.05
2018-05-15T07:58:46.053Z,81.92
2018-05-15T07:59:46.046Z,81.48
2018-05-15T08:00:46.049Z,82.08
2018-05-15T08:01:46.056Z,81.48
2018-05-15T08:02:46.077Z,80.23
2018-05-15T08:03:46.047Z,80.21
2018-05-15T08:04:46.103Z,81.68
2018-05-15T08:05:46.051Z,80.96
2018-05-15T08:06:46.057Z,81.45
2018-05-15T08:07:46.507Z,82.18
2018-05-15T08:08:46.090Z,82.44
2018-05-15T08:09:46.043Z,82.6
2018-05-15T08:10:46.074Z,82.07
2018-05-15T08:11:46.243Z,82.6
2018-05-15T08:12:46.099Z,82.79
2018-05-15T08:13:46.127Z,79.95
2018-05-15T08:14:46.055Z,79.48
2018-05-15T08:15:46.101Z,79.03
2018-05-15T08:16:46.064Z,79.16
2018-05-15T08:17:46.065Z,79.19
2018-05-15T08:18:46.059Z,79.26
2018-05-15T08:19:46.068Z,79.08
2018-05-15T08:20:46.122Z,79.49
2018-05-15T08:21:46.152Z,80.14
2018-05-15T08:22:46.061Z,80.64
2018-05-15T08:23:46.072Z,79.8
2018-05-15T08:24:46.048Z,79.2
2018-05-15T08:25:46.067Z,79.49
2018-05-15T08:26:46.911Z,79.19
2018-05-15T08:27:46.078Z,78.38
2018-05-15T08:28:46.244Z,78.1
2018-05-15T08:29:46.061Z,78.71
2018-05-15T08:30:46.147Z,78.36
2018-05-15T08:31:46.077Z,76.82
2018-05-15T08:32:46.069Z,74.7
2018-05-15T08:33:46.076Z,75.88
2018-05-15T08:34:46.106Z,78.22
2018-05-15T08:35:46.074Z,77.36
2018-05-15T08:36:46.072Z,76.12
2018-05-15T08:37:46.103Z,75.92
2018-05-15T08:38:46.072Z,76.03
2018-05-15T08:39:46.079Z,76.29
2018-05-15T08:40:46.105Z,73.84
2018-05-15T08:41:46.070Z,74.73
2018-05-15T08:42:46.157Z,74.08
2018-05-15T08:43:46.174Z,73.93
2018-05-15T08:44:46.124Z,73.72
2018-05-15T08:45:46.119Z,74.51
2018-05-15T08:46:46.130Z,70.1
2018-05-15T08:47:47.007Z,70.24
2018-05-15T08:48:46.257Z,72.67
2018-05-15T08:49:46.144Z,73.8
2018-05-15T08:50:46.139Z,72.23
2018-05-15T08:51:46.142Z,72.67
2018-05-15T08:52:46.136Z,71.68
2018-05-15T08:53:46.129Z,70.52
2018-05-15T08:54:46.104Z,71.61
2018-05-15T08:55:46.096Z,70.69
2018-05-15T08:56:46.098Z,70.05
2018-05-15T08:57:46.145Z,69.1
2018-05-15T08:58:46.198Z,69.41
2018-05-15T08:59:46.108Z,70.19
2018-05-15T09:00:46.328Z,69.73
2018-05-15T09:01:46.149Z,68.06
2018-05-15T09:02:46.103Z,68.71
2018-05-15T09:03:46.134Z,68.8
2018-05-15T09:04:46.119Z,67.8
2018-05-15T09:05:46.117Z,68.33
2018-05-15T09:06:46.093Z,69.12
2018-05-15T09:07:46.114Z,68.42
2018-05-15T09:08:46.103Z,67.21
2018-05-15T09:09:46.142Z,67.94
2018-05-15T09:10:46.163Z,67.62
2018-05-15T09:11:46.113Z,67.76
2018-05-15T09:12:46.110Z,67.27
2018-05-15T09:13:46.112Z,68.07
2018-05-15T09:14:46.138Z,65.66
2018-05-15T09:15:46.174Z,66.39
2018-05-15T09:16:46.144Z,64.88
2018-05-15T09:17:46.150Z,65.35
2018-05-15T09:18:46.263Z,66.46
2018-05-15T09:19:46.571Z,65.5
2018-05-15T09:20:46.126Z,67.25
2018-05-15T09:21:46.126Z,66.32
2018-05-15T09:22:46.143Z,66.4
2018-05-15T09:23:46.149Z,66.54
2018-05-15T09:24:46.607Z,64.78
2018-05-15T09:25:46.161Z,66.29
2018-05-15T09:26:46.106Z,66.05
2018-05-15T09:27:46.131Z,64.21
2018-05-15T09:28:46.119Z,65.11
2018-05-15T09:29:46.141Z,63.85
2018-05-15T09:30:46.151Z,64.37
2018-05-15T09:31:46.118Z,63.61
2018-05-15T09:32:46.233Z,64.97
2018-05-15T09:33:46.179Z,66.44
2018-05-15T09:34:46.120Z,66.68
2018-05-15T09:35:46.131Z,67.12
2018-05-15T09:36:46.151Z,65.35
2018-05-15T09:37:46.144Z,64.47
2018-05-15T09:38:46.339Z,63.54
2018-05-15T09:39:46.151Z,63.3
2018-05-15T09:40:46.119Z,65.31
2018-05-15T09:41:46.110Z,64.36
2018-05-15T09:42:46.159Z,64.13
2018-05-15T09:43:46.134Z,62.93
2018-05-15T09:44:46.366Z,62.98
2018-05-15T09:45:46.141Z,63.82
2018-05-15T09:46:46.138Z,65.37
2018-05-15T09:47:46.273Z,63.18
2018-05-15T09:48:46.140Z,63.95
2018-05-15T09:49:46.175Z,62.19
2018-05-15T09:50:46.173Z,63.31
2018-05-15T09:51:46.139Z,63.21
2018-05-15T09:52:46.197Z,63.22
2018-05-15T09:53:46.133Z,62.8
2018-05-15T09:54:46.223Z,62.48
2018-05-15T09:55:46.153Z,63.03
2018-05-15T09:56:46.127Z,63.93
2018-05-15T09:57:46.207Z,60.99
2018-05-15T09:58:46.175Z,62.35
2018-05-15T09:59:46.137Z,60.4
2018-05-15T10:00:46.136Z,61.91
2018-05-15T10:01:46.138Z,61.42
2018-05-15T10:02:46.221Z,62
2018-05-15T10:03:46.147Z,61.53
2018-05-15T10:04:46.126Z,62.88
2018-05-15T10:05:46.167Z,63.27
2018-05-15T10:06:46.123Z,62.48
2018-05-15T10:07:46.181Z,63.23
2018-05-15T10:08:46.486Z,64.32
2018-05-15T10:09:46.131Z,63.66
2018-05-15T10:10:46.165Z,63.47
2018-05-15T10:11:46.142Z,63.75
2018-05-15T10:12:46.114Z,63.7
2018-05-15T10:13:46.150Z,62.85
2018-05-15T10:14:46.133Z,63.14
2018-05-15T10:15:46.141Z,62.9
2018-05-15T10:16:46.151Z,61.34
2018-05-15T10:17:46.131Z,63.05
2018-05-15T10:18:46.139Z,60.49
2018-05-15T10:19:46.147Z,61.99
2018-05-15T10:20:46.148Z,61.79
2018-05-15T10:21:46.164Z,61.96
2018-05-15T10:22:46.176Z,62.17
2018-05-15T10:23:46.130Z,59.43
2018-05-15T10:24:46.155Z,59.13
2018-05-15T10:25:46.232Z,59.12
2018-05-15T10:26:46.181Z,59.46
2018-05-15T10:27:46.143Z,60.78
2018-05-15T10:28:46.198Z,58
2018-05-15T10:29:46.303Z,59.23
2018-05-15T10:30:46.139Z,59.12
2018-05-15T10:31:46.173Z,60.02
2018-05-15T10:32:46.160Z,59.11
2018-05-15T10:33:46.159Z,58.84
2018-05-15T10:34:46.175Z,57.05
2018-05-15T10:35:46.161Z,58.61
2018-05-15T10:36:46.255Z,55.24
2018-05-15T10:37:46.173Z,54.03
2018-05-15T10:38:46.151Z,57.2
2018-05-15T10:39:46.205Z,59.08
2018-05-15T10:40:46.373Z,58.59
2018-05-15T10:41:46.368Z,59.67
2018-05-15T10:42:46.186Z,58.4
2018-05-15T10:43:46.153Z,55.72
2018-05-15T10:44:46.197Z,57.54
2018-05-15T10:45:46.150Z,51.88
2018-05-15T10:46:46.145Z,53
2018-05-15T10:47:46.155Z,54.75
2018-05-15T10:48:46.140Z,53.38
2018-05-15T10:49:46.169Z,54.71
2018-05-15T10:50:46.149Z,54.25
2018-05-15T10:51:46.141Z,53.7
2018-05-15T10:52:46.149Z,53.79
2018-05-15T10:53:46.243Z,52.12
2018-05-15T10:54:46.138Z,52.69
2018-05-15T10:55:46.174Z,54.41
2018-05-15T10:56:46.159Z,52.14
2018-05-15T10:57:46.169Z,53.39
2018-05-15T10:58:46.136Z,52.24
2018-05-15T10:59:46.191Z,53.01
2018-05-15T11:00:46.186Z,54.26
2018-05-15T11:01:46.166Z,52.34
2018-05-15T11:02:46.355Z,52.13
2018-05-15T11:03:46.189Z,53.96
2018-05-15T11:04:46.339Z,54.18
2018-05-15T11:05:46.232Z,55.65
2018-05-15T11:06:46.242Z,53.26
2018-05-15T11:07:46.163Z,53.81
2018-05-15T11:08:46.268Z,51.99
2018-05-15T11:09:46.226Z,50.51
2018-05-15T11:10:46.190Z,50.54
2018-05-15T11:11:46.176Z,52.69
2018-05-15T11:12:46.207Z,50.44
2018-05-15T11:13:46.156Z,50.24
2018-05-15T11:14:46.177Z,50.88
2018-05-15T11:15:46.171Z,49
2018-05-15T11:16:46.185Z,47.56
2018-05-15T11:17:46.198Z,48.47
2018-05-15T11:18:46.335Z,47.58
2018-05-15T11:19:46.175Z,46.9
2018-05-15T11:20:46.177Z,45.93
2018-05-15T11:21:46.184Z,48.04
2018-05-15T11:22:46.190Z,46.03
2018-05-15T11:23:46.200Z,44.21
2018-05-15T11:24:46.377Z,45.29
2018-05-15T11:25:46.189Z,44.53
2018-05-15T11:26:46.179Z,44.27
2018-05-15T11:27:46.192Z,44.16
2018-05-15T11:28:46.221Z,45.58
2018-05-15T11:29:46.185Z,46.32
2018-05-15T11:30:46.192Z,45.94
2018-05-15T11:31:46.349Z,47.13
2018-05-15T11:32:46.273Z,45.29
2018-05-15T11:33:46.245Z,45.32
2018-05-15T11:34:46.310Z,44.46
2018-05-15T11:35:46.332Z,45.6
2018-05-15T11:36:46.182Z,44.47
2018-05-15T11:37:46.377Z,44.45
2018-05-15T11:38:46.200Z,44.11
2018-05-15T11:39:46.158Z,44.44
2018-05-15T11:40:46.904Z,43.73
2018-05-15T11:41:46.370Z,45.5
2018-05-15T11:42:46.291Z,43.83
2018-05-15T11:43:46.179Z,44.15
2018-05-15T11:44:46.265Z,42.07
2018-05-15T11:45:46.197Z,43.05
2018-05-15T11:46:46.164Z,42.84
2018-05-15T11:47:46.360Z,42.12
2018-05-15T11:48:46.882Z,40.54
2018-05-15T11:49:47.034Z,40.82
2018-05-15T11:50:46.837Z,41.58
2018-05-15T11:51:47.085Z,42.08
2018-05-15T11:52:47.048Z,42.54
2018-05-15T11:53:46.284Z,40.67
2018-05-15T11:54:46.283Z,42.74
2018-05-15T11:55:46.396Z,39.98
2018-05-15T11:56:46.336Z,39.62
2018-05-15T11:57:46.186Z,39.91
2018-05-15T11:58:46.210Z,39.79
2018-05-15T11:59:46.283Z,40.2
2018-05-15T12:00:46.190Z,42
2018-05-15T12:01:46.202Z,41.82
2018-05-15T12:02:46.177Z,41.49
2018-05-15T12:03:46.204Z,40.75
2018-05-15T12:04:46.165Z,40.33
2018-05-15T12:05:46.182Z,39.82
2018-05-15T12:06:46.186Z,39.2
2018-05-15T12:07:46.193Z,40.39
2018-05-15T12:08:46.214Z,39.78
2018-05-15T12:09:46.189Z,38.99
2018-05-15T12:10:46.192Z,37.42
2018-05-15T12:11:46.200Z,38.65
2018-05-15T12:12:46.220Z,39.67
2018-05-15T12:13:46.201Z,38.4
2018-05-15T12:14:46.179Z,37.96
2018-05-15T12:15:46.349Z,38.47
2018-05-15T12:16:46.180Z,38.79
2018-05-15T12:17:46.173Z,37.66
2018-05-15T12:18:46.204Z,37.86
2018-05-15T12:19:52.073Z,37.55
2018-05-15T12:20:46.197Z,36.47
2018-05-15T12:21:46.176Z,36.79
2018-05-15T12:22:46.252Z,37.1
2018-05-15T12:23:46.206Z,37.65
2018-05-15T12:24:46.286Z,38.5
2018-05-15T12:25:46.242Z,38.62
2018-05-15T12:26:46.324Z,35.12
2018-05-15T12:27:46.187Z,37.58
2018-05-15T12:28:46.274Z,35.64
2018-05-15T12:29:46.327Z,35.42
2018-05-15T12:30:46.244Z,35.39
2018-05-15T12:31:46.254Z,36.82
2018-05-15T12:32:46.281Z,36.78
2018-05-15T12:33:46.179Z,38.13
2018-05-15T12:34:46.189Z,38.42
2018-05-15T12:35:46.344Z,38.3
2018-05-15T12:36:46.242Z,38.12
2018-05-15T12:37:46.195Z,38.51
2018-05-15T12:38:46.216Z,38.35
2018-05-15T12:39:46.238Z,38.74
2018-05-15T12:40:46.252Z,38.7
2018-05-15T12:41:46.339Z,37.6
2018-05-15T12:42:46.235Z,37.15
2018-05-15T12:43:46.231Z,37.85
2018-05-15T12:44:46.243Z,38.18
2018-05-15T12:45:46.331Z,38.2
2018-05-15T12:46:46.241Z,38.49
2018-05-15T12:47:46.287Z,38.49
2018-05-15T12:48:46.244Z,39.3
2018-05-15T12:49:46.203Z,38.05
2018-05-15T12:50:46.238Z,38.21
2018-05-15T12:51:46.204Z,38.42
2018-05-15T12:52:46.207Z,38.47
2018-05-15T12:53:46.279Z,37.49
2018-05-15T12:54:46.212Z,38.47
2018-05-15T12:55:46.213Z,39.26
2018-05-15T12:56:46.269Z,38.67